sensor_id;sensor_type;location;lat;lon;timestamp;temperature;humidity
4433;DHT22;2229;48.708;9.706;2024-03-23T00:54:47;8.70;90.40
4433;DHT22;2229;48.708;9.706;2024-03-23T00:57:15;8.70;90.40
4433;DHT22;2229;48.708;9.706;2024-03-23T00:59:41;8.60;90.40
4433;DHT22;2229;48.708;9.706;2024-03-23T01:02:08;8.60;90.50
4433;DHT22;2229;48.708;9.706;2024-03-23T01:04:34;8.60;90.60
4433;DHT22;2229;48.708;9.706;2024-03-23T01:07:01;8.70;90.70
4433;DHT22;2229;48.708;9.706;2024-03-23T01:09:28;8.70;90.70
4433;DHT22;2229;48.708;9.706;2024-03-23T01:11:55;8.70;90.60
4433;DHT22;2229;48.708;9.706;2024-03-23T01:14:21;8.60;90.60
4433;DHT22;2229;48.708;9.706;2024-03-23T01:16:49;8.60;90.60
4433;DHT22;2229;48.708;9.706;2024-03-23T01:19:15;8.50;90.60
4433;DHT22;2229;48.708;9.706;2024-03-23T01:21:42;8.50;90.60
4433;DHT22;2229;48.708;9.706;2024-03-23T01:24:09;8.40;90.60
4433;DHT22;2229;48.708;9.706;2024-03-23T01:26:38;8.40;90.60
4433;DHT22;2229;48.708;9.706;2024-03-23T01:29:04;8.30;90.60
4433;DHT22;2229;48.708;9.706;2024-03-23T01:31:31;8.30;90.90
4433;DHT22;2229;48.708;9.706;2024-03-23T01:33:57;8.20;90.60
4433;DHT22;2229;48.708;9.706;2024-03-23T01:36:25;8.20;90.70
4433;DHT22;2229;48.708;9.706;2024-03-23T01:38:51;8.10;90.90
4433;DHT22;2229;48.708;9.706;2024-03-23T01:41:18;8.10;91.00
4433;DHT22;2229;48.708;9.706;2024-03-23T01:43:46;8.10;91.00
4433;DHT22;2229;48.708;9.706;2024-03-23T01:46:13;8.10;91.10
4433;DHT22;2229;48.708;9.706;2024-03-23T01:48:39;8.10;91.10
4433;DHT22;2229;48.708;9.706;2024-03-23T01:51:07;8.10;91.10
4433;DHT22;2229;48.708;9.706;2024-03-23T01:53:33;8.00;91.10
4433;DHT22;2229;48.708;9.706;2024-03-23T01:56:00;7.90;91.10
4433;DHT22;2229;48.708;9.706;2024-03-23T01:58:28;7.90;91.20
4433;DHT22;2229;48.708;9.706;2024-03-23T02:00:58;7.90;91.30
4433;DHT22;2229;48.708;9.706;2024-03-23T02:03:25;7.90;91.50
4433;DHT22;2229;48.708;9.706;2024-03-23T02:05:53;7.90;91.50
4433;DHT22;2229;48.708;9.706;2024-03-23T02:08:21;7.90;91.60
4433;DHT22;2229;48.708;9.706;2024-03-23T02:10:48;8.00;91.70
4433;DHT22;2229;48.708;9.706;2024-03-23T02:13:14;8.00;91.70
4433;DHT22;2229;48.708;9.706;2024-03-23T02:15:42;8.00;91.80
4433;DHT22;2229;48.708;9.706;2024-03-23T02:18:10;8.10;91.80
4433;DHT22;2229;48.708;9.706;2024-03-23T02:20:37;8.10;91.90
4433;DHT22;2229;48.708;9.706;2024-03-23T02:23:05;8.20;92.00
4433;DHT22;2229;48.708;9.706;2024-03-23T02:25:32;8.20;92.00
4433;DHT22;2229;48.708;9.706;2024-03-23T02:27:59;8.20;92.00
4433;DHT22;2229;48.708;9.706;2024-03-23T02:30:27;8.30;92.10
4433;DHT22;2229;48.708;9.706;2024-03-23T02:32:53;8.30;92.10
4433;DHT22;2229;48.708;9.706;2024-03-23T02:35:20;8.40;92.10
4433;DHT22;2229;48.708;9.706;2024-03-23T02:37:46;8.40;92.00
4433;DHT22;2229;48.708;9.706;2024-03-23T02:40:17;8.30;91.90
4433;DHT22;2229;48.708;9.706;2024-03-23T02:42:43;8.30;91.90
4433;DHT22;2229;48.708;9.706;2024-03-23T02:45:13;8.30;92.30
4433;DHT22;2229;48.708;9.706;2024-03-23T02:47:40;8.30;92.20
4433;DHT22;2229;48.708;9.706;2024-03-23T02:50:08;8.20;92.00
4433;DHT22;2229;48.708;9.706;2024-03-23T02:52:35;8.20;92.10
4433;DHT22;2229;48.708;9.706;2024-03-23T02:55:02;8.30;92.20
4433;DHT22;2229;48.708;9.706;2024-03-23T02:57:30;8.30;92.30
4433;DHT22;2229;48.708;9.706;2024-03-23T02:59:57;8.30;92.30
4433;DHT22;2229;48.708;9.706;2024-03-23T03:02:23;8.30;92.50
4433;DHT22;2229;48.708;9.706;2024-03-23T03:04:50;8.30;92.30
4433;DHT22;2229;48.708;9.706;2024-03-23T03:07:16;8.30;92.40
4433;DHT22;2229;48.708;9.706;2024-03-23T03:09:43;8.40;92.50
4433;DHT22;2229;48.708;9.706;2024-03-23T03:12:09;8.40;92.50
4433;DHT22;2229;48.708;9.706;2024-03-23T03:14:38;8.40;92.50
4433;DHT22;2229;48.708;9.706;2024-03-23T03:17:04;8.40;92.60
4433;DHT22;2229;48.708;9.706;2024-03-23T03:19:31;8.40;92.60
4433;DHT22;2229;48.708;9.706;2024-03-23T03:21:58;8.40;92.60
4433;DHT22;2229;48.708;9.706;2024-03-23T03:24:25;8.40;92.60
4433;DHT22;2229;48.708;9.706;2024-03-23T03:26:51;8.40;92.70
4433;DHT22;2229;48.708;9.706;2024-03-23T03:29:18;8.40;92.70
4433;DHT22;2229;48.708;9.706;2024-03-23T03:31:45;8.40;92.60
4433;DHT22;2229;48.708;9.706;2024-03-23T03:34:16;8.40;92.60
4433;DHT22;2229;48.708;9.706;2024-03-23T03:36:42;8.40;92.80
4433;DHT22;2229;48.708;9.706;2024-03-23T03:39:09;8.40;92.60
4433;DHT22;2229;48.708;9.706;2024-03-23T03:41:35;8.40;92.70
4433;DHT22;2229;48.708;9.706;2024-03-23T03:44:02;8.40;92.80
4433;DHT22;2229;48.708;9.706;2024-03-23T03:46:29;8.50;92.80
4433;DHT22;2229;48.708;9.706;2024-03-23T03:48:57;8.40;92.80
4433;DHT22;2229;48.708;9.706;2024-03-23T03:51:23;8.50;92.80
4433;DHT22;2229;48.708;9.706;2024-03-23T03:53:50;8.50;92.80
4433;DHT22;2229;48.708;9.706;2024-03-23T03:56:16;8.50;92.90
4433;DHT22;2229;48.708;9.706;2024-03-23T03:58:44;8.60;93.00
4433;DHT22;2229;48.708;9.706;2024-03-23T04:01:10;8.60;93.00
4433;DHT22;2229;48.708;9.706;2024-03-23T04:03:37;8.60;92.90
4433;DHT22;2229;48.708;9.706;2024-03-23T04:06:06;8.50;92.90
4433;DHT22;2229;48.708;9.706;2024-03-23T04:08:45;8.50;93.10
4433;DHT22;2229;48.708;9.706;2024-03-23T04:11:11;8.40;93.00
4433;DHT22;2229;48.708;9.706;2024-03-23T04:13:38;8.40;93.00
4433;DHT22;2229;48.708;9.706;2024-03-23T04:16:07;8.30;92.90
4433;DHT22;2229;48.708;9.706;2024-03-23T04:18:35;8.30;93.00
4433;DHT22;2229;48.708;9.706;2024-03-23T04:21:02;8.20;92.90
4433;DHT22;2229;48.708;9.706;2024-03-23T04:23:38;8.10;92.90
4433;DHT22;2229;48.708;9.706;2024-03-23T04:26:04;8.10;92.90
4433;DHT22;2229;48.708;9.706;2024-03-23T04:28:31;8.10;93.00
4433;DHT22;2229;48.708;9.706;2024-03-23T04:30:58;8.00;92.90
4433;DHT22;2229;48.708;9.706;2024-03-23T04:33:25;7.90;92.90
4433;DHT22;2229;48.708;9.706;2024-03-23T04:35:51;7.80;92.90
4433;DHT22;2229;48.708;9.706;2024-03-23T04:38:18;7.80;92.90
4433;DHT22;2229;48.708;9.706;2024-03-23T04:40:54;7.70;93.00
4433;DHT22;2229;48.708;9.706;2024-03-23T04:43:21;7.70;93.10
4433;DHT22;2229;48.708;9.706;2024-03-23T04:45:48;7.70;93.30
4433;DHT22;2229;48.708;9.706;2024-03-23T04:48:15;7.70;93.30
4433;DHT22;2229;48.708;9.706;2024-03-23T04:50:43;7.60;93.40
4433;DHT22;2229;48.708;9.706;2024-03-23T04:53:09;7.70;93.50
4433;DHT22;2229;48.708;9.706;2024-03-23T04:55:36;7.60;93.50
4433;DHT22;2229;48.708;9.706;2024-03-23T04:58:04;7.70;93.60
4433;DHT22;2229;48.708;9.706;2024-03-23T05:00:30;7.60;93.60
4433;DHT22;2229;48.708;9.706;2024-03-23T05:02:57;7.70;93.80
4433;DHT22;2229;48.708;9.706;2024-03-23T05:05:25;7.70;93.90
4433;DHT22;2229;48.708;9.706;2024-03-23T05:07:52;7.80;94.00
4433;DHT22;2229;48.708;9.706;2024-03-23T05:10:19;7.80;94.10
4433;DHT22;2229;48.708;9.706;2024-03-23T05:12:45;7.80;94.20
4433;DHT22;2229;48.708;9.706;2024-03-23T05:15:13;7.90;94.30
4433;DHT22;2229;48.708;9.706;2024-03-23T05:17:39;8.00;94.50
4433;DHT22;2229;48.708;9.706;2024-03-23T05:20:07;8.10;94.50
4433;DHT22;2229;48.708;9.706;2024-03-23T05:22:36;8.30;94.60
4433;DHT22;2229;48.708;9.706;2024-03-23T05:25:03;8.30;94.60
4433;DHT22;2229;48.708;9.706;2024-03-23T05:27:31;8.40;94.70
4433;DHT22;2229;48.708;9.706;2024-03-23T05:29:58;8.60;94.90
4433;DHT22;2229;48.708;9.706;2024-03-23T05:32:29;8.80;95.30
4433;DHT22;2229;48.708;9.706;2024-03-23T05:34:56;9.00;95.60
4433;DHT22;2229;48.708;9.706;2024-03-23T05:37:22;9.30;95.80
4433;DHT22;2229;48.708;9.706;2024-03-23T05:40:14;9.40;96.00
4433;DHT22;2229;48.708;9.706;2024-03-23T05:42:41;9.60;96.30
4433;DHT22;2229;48.708;9.706;2024-03-23T05:45:09;10.10;96.50
4433;DHT22;2229;48.708;9.706;2024-03-23T05:47:37;9.70;98.20
4433;DHT22;2229;48.708;9.706;2024-03-23T05:50:06;10.10;97.40
4433;DHT22;2229;48.708;9.706;2024-03-23T05:52:32;10.00;97.40
4433;DHT22;2229;48.708;9.706;2024-03-23T05:55:00;10.60;98.10
4433;DHT22;2229;48.708;9.706;2024-03-23T05:57:29;9.90;99.50
4433;DHT22;2229;48.708;9.706;2024-03-23T05:59:56;9.30;98.00
4433;DHT22;2229;48.708;9.706;2024-03-23T06:02:24;10.10;99.20
4433;DHT22;2229;48.708;9.706;2024-03-23T06:04:53;11.30;99.40
4433;DHT22;2229;48.708;9.706;2024-03-23T06:07:19;9.80;99.70
4433;DHT22;2229;48.708;9.706;2024-03-23T06:09:48;10.60;99.50
4433;DHT22;2229;48.708;9.706;2024-03-23T06:12:28;10.30;99.80
4433;DHT22;2229;48.708;9.706;2024-03-23T06:14:58;10.10;99.90
4433;DHT22;2229;48.708;9.706;2024-03-23T06:17:28;10.50;99.80
4433;DHT22;2229;48.708;9.706;2024-03-23T06:20:01;9.80;99.90
4433;DHT22;2229;48.708;9.706;2024-03-23T06:22:55;9.70;99.90
4433;DHT22;2229;48.708;9.706;2024-03-23T06:25:23;9.80;99.90
4433;DHT22;2229;48.708;9.706;2024-03-23T06:27:49;10.60;99.90
4433;DHT22;2229;48.708;9.706;2024-03-23T06:30:18;9.60;99.90
4433;DHT22;2229;48.708;9.706;2024-03-23T06:32:46;9.70;99.90
4433;DHT22;2229;48.708;9.706;2024-03-23T06:35:16;9.50;99.90
4433;DHT22;2229;48.708;9.706;2024-03-23T06:37:45;9.60;99.90
4433;DHT22;2229;48.708;9.706;2024-03-23T06:40:13;9.30;99.90
4433;DHT22;2229;48.708;9.706;2024-03-23T06:42:40;9.60;99.90
4433;DHT22;2229;48.708;9.706;2024-03-23T06:45:08;9.30;99.90
4433;DHT22;2229;48.708;9.706;2024-03-23T06:47:36;9.50;99.90
4433;DHT22;2229;48.708;9.706;2024-03-23T06:50:04;9.60;99.90
4433;DHT22;2229;48.708;9.706;2024-03-23T06:52:36;9.40;99.90
4433;DHT22;2229;48.708;9.706;2024-03-23T06:55:04;9.30;99.90
4433;DHT22;2229;48.708;9.706;2024-03-23T06:57:31;9.30;99.90
4433;DHT22;2229;48.708;9.706;2024-03-23T06:59:58;9.30;99.90
4433;DHT22;2229;48.708;9.706;2024-03-23T07:02:28;9.20;99.90
4433;DHT22;2229;48.708;9.706;2024-03-23T07:04:57;10.70;99.90
4433;DHT22;2229;48.708;9.706;2024-03-23T07:07:23;10.50;99.90
4433;DHT22;2229;48.708;9.706;2024-03-23T07:09:52;9.30;99.90
4433;DHT22;2229;48.708;9.706;2024-03-23T07:12:43;9.40;99.90
4433;DHT22;2229;48.708;9.706;2024-03-23T07:15:12;9.40;99.90
4433;DHT22;2229;48.708;9.706;2024-03-23T07:17:38;9.60;99.90
4433;DHT22;2229;48.708;9.706;2024-03-23T07:20:06;9.50;99.90
4433;DHT22;2229;48.708;9.706;2024-03-23T07:22:37;9.60;99.90
4433;DHT22;2229;48.708;9.706;2024-03-23T07:25:07;8.90;99.90
4433;DHT22;2229;48.708;9.706;2024-03-23T07:27:37;9.60;99.90
4433;DHT22;2229;48.708;9.706;2024-03-23T07:30:17;9.30;99.90
4433;DHT22;2229;48.708;9.706;2024-03-23T07:32:48;9.80;99.90
4433;DHT22;2229;48.708;9.706;2024-03-23T07:35:16;9.40;99.90
4433;DHT22;2229;48.708;9.706;2024-03-23T07:37:46;9.40;99.90
4433;DHT22;2229;48.708;9.706;2024-03-23T07:40:26;9.70;99.90
4433;DHT22;2229;48.708;9.706;2024-03-23T07:42:54;10.70;99.90
4433;DHT22;2229;48.708;9.706;2024-03-23T07:45:23;9.50;99.90
4433;DHT22;2229;48.708;9.706;2024-03-23T07:47:53;9.20;99.90
4433;DHT22;2229;48.708;9.706;2024-03-23T07:50:23;9.60;99.90
4433;DHT22;2229;48.708;9.706;2024-03-23T07:52:51;9.80;99.90
4433;DHT22;2229;48.708;9.706;2024-03-23T07:55:17;9.70;99.60
4433;DHT22;2229;48.708;9.706;2024-03-23T07:57:51;9.60;99.80
4433;DHT22;2229;48.708;9.706;2024-03-23T08:00:17;9.70;99.90
4433;DHT22;2229;48.708;9.706;2024-03-23T08:02:51;9.60;98.20
4433;DHT22;2229;48.708;9.706;2024-03-23T08:05:19;9.30;98.00
4433;DHT22;2229;48.708;9.706;2024-03-23T08:07:50;10.20;98.20
4433;DHT22;2229;48.708;9.706;2024-03-23T08:10:16;9.20;97.70
4433;DHT22;2229;48.708;9.706;2024-03-23T08:12:47;10.30;97.60
4433;DHT22;2229;48.708;9.706;2024-03-23T08:15:14;9.40;97.50
4433;DHT22;2229;48.708;9.706;2024-03-23T08:17:41;9.50;98.10
4433;DHT22;2229;48.708;9.706;2024-03-23T08:20:08;9.80;97.70
4433;DHT22;2229;48.708;9.706;2024-03-23T08:22:36;9.70;98.30
4433;DHT22;2229;48.708;9.706;2024-03-23T08:25:06;10.70;98.50
4433;DHT22;2229;48.708;9.706;2024-03-23T08:27:34;9.60;97.30
4433;DHT22;2229;48.708;9.706;2024-03-23T08:30:02;9.30;97.60
4433;DHT22;2229;48.708;9.706;2024-03-23T08:32:29;9.50;97.50
4433;DHT22;2229;48.708;9.706;2024-03-23T08:34:55;9.40;97.70
4433;DHT22;2229;48.708;9.706;2024-03-23T08:37:22;9.40;97.20
4433;DHT22;2229;48.708;9.706;2024-03-23T08:39:52;9.40;97.00
4433;DHT22;2229;48.708;9.706;2024-03-23T08:42:30;9.40;96.80
4433;DHT22;2229;48.708;9.706;2024-03-23T08:44:57;9.30;96.90
4433;DHT22;2229;48.708;9.706;2024-03-23T08:47:26;10.70;97.70
4433;DHT22;2229;48.708;9.706;2024-03-23T08:49:52;9.50;97.90
4433;DHT22;2229;48.708;9.706;2024-03-23T08:52:19;9.40;98.20
4433;DHT22;2229;48.708;9.706;2024-03-23T08:54:48;9.50;98.70
4433;DHT22;2229;48.708;9.706;2024-03-23T08:57:16;9.60;98.10
4433;DHT22;2229;48.708;9.706;2024-03-23T08:59:43;9.60;97.10
4433;DHT22;2229;48.708;9.706;2024-03-23T09:02:13;9.40;96.70
4433;DHT22;2229;48.708;9.706;2024-03-23T09:04:42;9.30;96.80
4433;DHT22;2229;48.708;9.706;2024-03-23T09:07:09;10.20;97.10
4433;DHT22;2229;48.708;9.706;2024-03-23T09:09:40;9.60;98.10
4433;DHT22;2229;48.708;9.706;2024-03-23T09:12:09;9.70;97.50
4433;DHT22;2229;48.708;9.706;2024-03-23T09:14:35;10.30;97.10
4433;DHT22;2229;48.708;9.706;2024-03-23T09:17:03;9.60;97.50
4433;DHT22;2229;48.708;9.706;2024-03-23T09:19:30;8.20;98.80
4433;DHT22;2229;48.708;9.706;2024-03-23T09:22:00;9.20;97.10
4433;DHT22;2229;48.708;9.706;2024-03-23T09:24:26;9.00;97.00
4433;DHT22;2229;48.708;9.706;2024-03-23T09:26:56;8.90;96.90
4433;DHT22;2229;48.708;9.706;2024-03-23T09:29:22;8.70;97.00
4433;DHT22;2229;48.708;9.706;2024-03-23T09:31:49;8.70;97.20
4433;DHT22;2229;48.708;9.706;2024-03-23T09:34:22;8.70;97.30
4433;DHT22;2229;48.708;9.706;2024-03-23T09:36:51;8.80;96.70
4433;DHT22;2229;48.708;9.706;2024-03-23T09:39:19;8.70;97.60
4433;DHT22;2229;48.708;9.706;2024-03-23T09:41:49;8.90;97.10
4433;DHT22;2229;48.708;9.706;2024-03-23T09:44:15;8.50;98.00
4433;DHT22;2229;48.708;9.706;2024-03-23T09:46:43;8.70;96.90
4433;DHT22;2229;48.708;9.706;2024-03-23T09:49:09;8.10;97.80
4433;DHT22;2229;48.708;9.706;2024-03-23T09:51:37;8.10;96.50
4433;DHT22;2229;48.708;9.706;2024-03-23T09:54:03;7.90;96.80
4433;DHT22;2229;48.708;9.706;2024-03-23T09:56:32;8.10;97.60
4433;DHT22;2229;48.708;9.706;2024-03-23T09:59:01;8.90;99.30
4433;DHT22;2229;48.708;9.706;2024-03-23T10:01:30;9.20;98.20
4433;DHT22;2229;48.708;9.706;2024-03-23T10:03:56;8.80;97.40
4433;DHT22;2229;48.708;9.706;2024-03-23T10:06:25;8.90;97.10
4433;DHT22;2229;48.708;9.706;2024-03-23T10:08:52;9.20;96.60
4433;DHT22;2229;48.708;9.706;2024-03-23T10:11:25;9.50;96.90
4433;DHT22;2229;48.708;9.706;2024-03-23T10:13:54;10.90;97.00
4433;DHT22;2229;48.708;9.706;2024-03-23T10:16:25;12.80;94.90
4433;DHT22;2229;48.708;9.706;2024-03-23T10:18:53;13.60;91.80
4433;DHT22;2229;48.708;9.706;2024-03-23T10:21:20;15.40;90.00
4433;DHT22;2229;48.708;9.706;2024-03-23T10:23:48;16.60;85.90
4433;DHT22;2229;48.708;9.706;2024-03-23T10:26:18;18.00;81.30
4433;DHT22;2229;48.708;9.706;2024-03-23T10:28:54;17.70;74.60
4433;DHT22;2229;48.708;9.706;2024-03-23T10:31:25;17.20;71.20
4433;DHT22;2229;48.708;9.706;2024-03-23T10:33:53;17.40;74.40
4433;DHT22;2229;48.708;9.706;2024-03-23T10:36:30;16.20;72.00
4433;DHT22;2229;48.708;9.706;2024-03-23T10:39:21;15.60;71.70
4433;DHT22;2229;48.708;9.706;2024-03-23T10:41:53;15.10;73.70
4433;DHT22;2229;48.708;9.706;2024-03-23T10:44:29;14.30;74.70
4433;DHT22;2229;48.708;9.706;2024-03-23T10:47:01;14.20;73.00
4433;DHT22;2229;48.708;9.706;2024-03-23T10:49:30;14.40;71.90
4433;DHT22;2229;48.708;9.706;2024-03-23T10:51:59;13.90;75.20
4433;DHT22;2229;48.708;9.706;2024-03-23T10:54:31;15.10;74.70
4433;DHT22;2229;48.708;9.706;2024-03-23T10:57:03;15.30;73.00
4433;DHT22;2229;48.708;9.706;2024-03-23T10:59:37;15.70;70.90
4433;DHT22;2229;48.708;9.706;2024-03-23T11:02:06;16.50;72.70
4433;DHT22;2229;48.708;9.706;2024-03-23T11:04:37;16.60;67.50
4433;DHT22;2229;48.708;9.706;2024-03-23T11:07:28;16.00;65.20
4433;DHT22;2229;48.708;9.706;2024-03-23T11:09:55;14.10;63.90
4433;DHT22;2229;48.708;9.706;2024-03-23T11:12:27;13.40;64.30
4433;DHT22;2229;48.708;9.706;2024-03-23T11:14:58;12.70;65.50
4433;DHT22;2229;48.708;9.706;2024-03-23T11:17:27;12.20;66.50
4433;DHT22;2229;48.708;9.706;2024-03-23T11:19:56;12.00;68.40
4433;DHT22;2229;48.708;9.706;2024-03-23T11:22:42;12.50;71.00
4433;DHT22;2229;48.708;9.706;2024-03-23T11:25:13;12.50;69.10
4433;DHT22;2229;48.708;9.706;2024-03-23T11:27:41;12.60;69.90
4433;DHT22;2229;48.708;9.706;2024-03-23T11:30:21;12.90;72.80
4433;DHT22;2229;48.708;9.706;2024-03-23T11:32:51;13.00;68.50
4433;DHT22;2229;48.708;9.706;2024-03-23T11:35:27;13.00;68.70
4433;DHT22;2229;48.708;9.706;2024-03-23T11:38:04;12.00;70.40
4433;DHT22;2229;48.708;9.706;2024-03-23T11:40:31;11.30;73.20
4433;DHT22;2229;48.708;9.706;2024-03-23T11:43:00;10.50;76.50
4433;DHT22;2229;48.708;9.706;2024-03-23T11:45:28;9.70;80.50
4433;DHT22;2229;48.708;9.706;2024-03-23T11:48:06;9.10;84.70
4433;DHT22;2229;48.708;9.706;2024-03-23T11:50:33;8.80;87.10
4433;DHT22;2229;48.708;9.706;2024-03-23T11:53:15;8.70;89.00
4433;DHT22;2229;48.708;9.706;2024-03-23T11:55:50;8.60;89.50
4433;DHT22;2229;48.708;9.706;2024-03-23T11:58:19;8.20;89.40
4433;DHT22;2229;48.708;9.706;2024-03-23T12:00:55;8.40;90.20
4433;DHT22;2229;48.708;9.706;2024-03-23T12:03:23;8.50;90.60
4433;DHT22;2229;48.708;9.706;2024-03-23T12:05:53;8.50;90.90
4433;DHT22;2229;48.708;9.706;2024-03-23T12:08:24;8.50;90.90
4433;DHT22;2229;48.708;9.706;2024-03-23T12:11:04;9.90;91.90
4433;DHT22;2229;48.708;9.706;2024-03-23T12:13:32;8.80;91.60
4433;DHT22;2229;48.708;9.706;2024-03-23T12:16:26;9.00;92.30
4433;DHT22;2229;48.708;9.706;2024-03-23T12:19:05;8.60;92.40
4433;DHT22;2229;48.708;9.706;2024-03-23T12:21:31;8.70;92.30
4433;DHT22;2229;48.708;9.706;2024-03-23T12:23:58;8.50;92.50
4433;DHT22;2229;48.708;9.706;2024-03-23T12:26:26;8.20;93.10
4433;DHT22;2229;48.708;9.706;2024-03-23T12:28:54;8.50;93.40
4433;DHT22;2229;48.708;9.706;2024-03-23T12:31:21;8.60;93.60
4433;DHT22;2229;48.708;9.706;2024-03-23T12:33:48;8.60;93.70
4433;DHT22;2229;48.708;9.706;2024-03-23T12:36:14;9.40;94.50
4433;DHT22;2229;48.708;9.706;2024-03-23T12:38:41;8.60;94.10
4433;DHT22;2229;48.708;9.706;2024-03-23T12:41:09;9.30;94.50
4433;DHT22;2229;48.708;9.706;2024-03-23T12:43:37;8.60;93.40
4433;DHT22;2229;48.708;9.706;2024-03-23T12:46:03;8.40;93.30
4433;DHT22;2229;48.708;9.706;2024-03-23T12:48:32;8.50;93.60
4433;DHT22;2229;48.708;9.706;2024-03-23T12:50:58;8.30;93.90
4433;DHT22;2229;48.708;9.706;2024-03-23T12:53:27;8.60;94.10
4433;DHT22;2229;48.708;9.706;2024-03-23T12:55:53;8.80;94.20
4433;DHT22;2229;48.708;9.706;2024-03-23T12:58:23;9.00;93.90
4433;DHT22;2229;48.708;9.706;2024-03-23T13:00:49;8.90;93.90
4433;DHT22;2229;48.708;9.706;2024-03-23T13:03:16;10.00;93.00
4433;DHT22;2229;48.708;9.706;2024-03-23T13:05:43;9.10;92.90
4433;DHT22;2229;48.708;9.706;2024-03-23T13:08:10;9.90;92.20
4433;DHT22;2229;48.708;9.706;2024-03-23T13:10:36;8.80;91.80
4433;DHT22;2229;48.708;9.706;2024-03-23T13:13:04;8.90;91.00
4433;DHT22;2229;48.708;9.706;2024-03-23T13:15:30;8.80;90.90
4433;DHT22;2229;48.708;9.706;2024-03-23T13:18:00;8.90;90.80
4433;DHT22;2229;48.708;9.706;2024-03-23T13:20:26;9.00;91.50
4433;DHT22;2229;48.708;9.706;2024-03-23T13:22:55;9.20;92.00
4433;DHT22;2229;48.708;9.706;2024-03-23T13:25:21;9.70;91.50
4433;DHT22;2229;48.708;9.706;2024-03-23T13:27:49;9.80;90.70
4433;DHT22;2229;48.708;9.706;2024-03-23T13:30:15;11.00;89.40
4433;DHT22;2229;48.708;9.706;2024-03-23T13:32:45;9.90;87.60
4433;DHT22;2229;48.708;9.706;2024-03-23T13:35:11;9.80;87.50
4433;DHT22;2229;48.708;9.706;2024-03-23T13:37:38;9.90;87.50
4433;DHT22;2229;48.708;9.706;2024-03-23T13:40:08;10.00;88.60
4433;DHT22;2229;48.708;9.706;2024-03-23T13:42:41;10.00;85.90
4433;DHT22;2229;48.708;9.706;2024-03-23T13:45:08;10.00;88.10
4433;DHT22;2229;48.708;9.706;2024-03-23T13:47:37;10.00;86.50
4433;DHT22;2229;48.708;9.706;2024-03-23T13:50:05;9.90;88.20
4433;DHT22;2229;48.708;9.706;2024-03-23T13:52:33;9.90;86.60
4433;DHT22;2229;48.708;9.706;2024-03-23T13:55:01;9.50;88.10
4433;DHT22;2229;48.708;9.706;2024-03-23T13:57:35;9.50;89.20
4433;DHT22;2229;48.708;9.706;2024-03-23T14:00:01;10.80;91.00
4433;DHT22;2229;48.708;9.706;2024-03-23T14:02:42;9.80;89.80
4433;DHT22;2229;48.708;9.706;2024-03-23T14:05:08;11.10;90.90
4433;DHT22;2229;48.708;9.706;2024-03-23T14:07:36;9.70;89.40
4433;DHT22;2229;48.708;9.706;2024-03-23T14:10:03;9.80;90.10
4433;DHT22;2229;48.708;9.706;2024-03-23T14:12:34;10.30;89.00
4433;DHT22;2229;48.708;9.706;2024-03-23T14:15:00;10.40;86.60
4433;DHT22;2229;48.708;9.706;2024-03-23T14:17:28;12.20;86.60
4433;DHT22;2229;48.708;9.706;2024-03-23T14:19:58;10.50;83.00
4433;DHT22;2229;48.708;9.706;2024-03-23T14:22:30;10.60;78.00
4433;DHT22;2229;48.708;9.706;2024-03-23T14:24:56;10.50;79.60
4433;DHT22;2229;48.708;9.706;2024-03-23T14:27:24;10.90;80.90
4433;DHT22;2229;48.708;9.706;2024-03-23T14:29:56;10.30;81.30
4433;DHT22;2229;48.708;9.706;2024-03-23T14:32:30;12.20;82.60
4433;DHT22;2229;48.708;9.706;2024-03-23T14:35:08;12.00;82.20
4433;DHT22;2229;48.708;9.706;2024-03-23T14:37:36;10.70;79.10
4433;DHT22;2229;48.708;9.706;2024-03-23T14:40:08;12.20;79.80
4433;DHT22;2229;48.708;9.706;2024-03-23T14:42:38;11.30;77.40
4433;DHT22;2229;48.708;9.706;2024-03-23T14:45:09;10.60;76.30
4433;DHT22;2229;48.708;9.706;2024-03-23T14:47:46;10.80;75.80
4433;DHT22;2229;48.708;9.706;2024-03-23T14:50:33;11.50;79.90
4433;DHT22;2229;48.708;9.706;2024-03-23T14:53:16;10.00;78.30
4433;DHT22;2229;48.708;9.706;2024-03-23T14:56:10;9.60;78.70
4433;DHT22;2229;48.708;9.706;2024-03-23T14:58:44;9.40;81.70
4433;DHT22;2229;48.708;9.706;2024-03-23T15:01:35;8.90;85.30
4433;DHT22;2229;48.708;9.706;2024-03-23T15:04:17;8.60;85.90
4433;DHT22;2229;48.708;9.706;2024-03-23T15:06:49;8.50;90.20
4433;DHT22;2229;48.708;9.706;2024-03-23T15:09:31;8.50;91.20
4433;DHT22;2229;48.708;9.706;2024-03-23T15:12:40;9.10;91.80
4433;DHT22;2229;48.708;9.706;2024-03-23T15:15:08;8.00;91.90
4433;DHT22;2229;48.708;9.706;2024-03-23T15:17:45;9.00;91.90
4433;DHT22;2229;48.708;9.706;2024-03-23T15:20:15;8.70;91.60
4433;DHT22;2229;48.708;9.706;2024-03-23T15:22:46;9.40;91.50
4433;DHT22;2229;48.708;9.706;2024-03-23T15:25:13;9.00;91.50
4433;DHT22;2229;48.708;9.706;2024-03-23T15:27:46;9.10;91.70
4433;DHT22;2229;48.708;9.706;2024-03-23T15:30:17;9.10;91.00
4433;DHT22;2229;48.708;9.706;2024-03-23T15:32:46;9.20;88.50
4433;DHT22;2229;48.708;9.706;2024-03-23T15:35:13;10.00;87.90
4433;DHT22;2229;48.708;9.706;2024-03-23T15:37:41;8.70;87.10
4433;DHT22;2229;48.708;9.706;2024-03-23T15:40:11;8.40;89.60
4433;DHT22;2229;48.708;9.706;2024-03-23T15:42:39;8.40;85.80
4433;DHT22;2229;48.708;9.706;2024-03-23T15:45:06;10.40;87.80
4433;DHT22;2229;48.708;9.706;2024-03-23T15:47:37;8.20;85.30
4433;DHT22;2229;48.708;9.706;2024-03-23T15:50:06;8.10;86.90
4433;DHT22;2229;48.708;9.706;2024-03-23T15:52:35;8.30;86.80
4433;DHT22;2229;48.708;9.706;2024-03-23T15:55:06;8.90;88.10
4433;DHT22;2229;48.708;9.706;2024-03-23T15:57:36;8.90;86.90
4433;DHT22;2229;48.708;9.706;2024-03-23T16:00:03;8.10;90.10
4433;DHT22;2229;48.708;9.706;2024-03-23T16:02:54;9.90;88.60
4433;DHT22;2229;48.708;9.706;2024-03-23T16:05:27;7.60;87.80
4433;DHT22;2229;48.708;9.706;2024-03-23T16:07:57;9.90;87.80
4433;DHT22;2229;48.708;9.706;2024-03-23T16:10:34;9.40;86.80
4433;DHT22;2229;48.708;9.706;2024-03-23T16:13:01;8.40;85.00
4433;DHT22;2229;48.708;9.706;2024-03-23T16:15:28;9.20;90.20
4433;DHT22;2229;48.708;9.706;2024-03-23T16:18:05;8.50;88.40
4433;DHT22;2229;48.708;9.706;2024-03-23T16:20:59;7.80;87.70
4433;DHT22;2229;48.708;9.706;2024-03-23T16:23:37;7.80;87.40
4433;DHT22;2229;48.708;9.706;2024-03-23T16:26:09;7.70;87.80
4433;DHT22;2229;48.708;9.706;2024-03-23T16:29:03;7.60;88.60
4433;DHT22;2229;48.708;9.706;2024-03-23T16:31:29;7.40;91.20
4433;DHT22;2229;48.708;9.706;2024-03-23T16:33:57;7.70;91.30
4433;DHT22;2229;48.708;9.706;2024-03-23T16:36:24;8.00;92.30
4433;DHT22;2229;48.708;9.706;2024-03-23T16:38:52;7.30;91.30
4433;DHT22;2229;48.708;9.706;2024-03-23T16:41:18;8.00;92.40
4433;DHT22;2229;48.708;9.706;2024-03-23T16:43:47;7.30;91.90
4433;DHT22;2229;48.708;9.706;2024-03-23T16:46:15;7.50;92.20
4433;DHT22;2229;48.708;9.706;2024-03-23T16:48:45;7.30;92.00
4433;DHT22;2229;48.708;9.706;2024-03-23T16:51:19;7.20;93.40
4433;DHT22;2229;48.708;9.706;2024-03-23T16:53:48;7.20;93.40
4433;DHT22;2229;48.708;9.706;2024-03-23T16:56:18;6.90;93.60
4433;DHT22;2229;48.708;9.706;2024-03-23T16:58:46;8.30;93.90
4433;DHT22;2229;48.708;9.706;2024-03-23T17:01:16;6.60;93.70
4433;DHT22;2229;48.708;9.706;2024-03-23T17:03:51;7.10;93.90
4433;DHT22;2229;48.708;9.706;2024-03-23T17:06:18;7.30;92.60
4433;DHT22;2229;48.708;9.706;2024-03-23T17:08:48;6.50;92.50
4433;DHT22;2229;48.708;9.706;2024-03-23T17:11:25;6.90;93.10
4433;DHT22;2229;48.708;9.706;2024-03-23T17:14:00;6.90;92.60
4433;DHT22;2229;48.708;9.706;2024-03-23T17:16:34;6.70;94.60
4433;DHT22;2229;48.708;9.706;2024-03-23T17:19:02;6.40;93.00
4433;DHT22;2229;48.708;9.706;2024-03-23T17:21:32;6.50;94.50
4433;DHT22;2229;48.708;9.706;2024-03-23T17:24:02;6.30;92.80